キンシャサ の空港の天気 - METARとTAF

キンシャサ/ヌジリ国際空港 ( FZAA / FIH ) - コンゴ民主共和国 キンシャサ
飛行場実況気象(Metar)
観測時間04/21 15:40 WAT (04/21 14:40 UTC)
風向・風速北 5m/s
視程7000m
天気現象
全天の4割程度の雲 雲底高度 490m
少しの雲 雲底高度 850m
全天の8割程度の雲 雲底高度 3050m
気温29℃
湿度74%
気圧1009hPa
METARFZAA 211440Z 36010KT 7000 SCT016 FEW028CB BKN100 29/24 Q1009 NOSIG
過去の天気等 Google飛行場航空写真 Wunderground天気予報

過去48時間のMETAR

飛行場予報(TAF)
発表時間: 4/21 12:00 WAT (4/21 11:00 UTC)
予報対象時間: 21日13時 WAT ~ 22日19時 WAT
風向・風速西北西 5m/s
視程7000m
全天の4割程度の雲 雲底高度 700m
少しの積乱雲 雲底高度 910m
21日15時 WAT ~ 21日20時 WAT に 確率 30% で一時的に
視程4000m
天気現象雷雨
全天の8割程度の雲 雲底高度 490m
全天の4割程度の積乱雲 雲底高度 850m
21日21時 WAT ~ 21日23時 WAT に徐々に
風向・風速南 2m/s
全天の8割程度の雲 雲底高度 490m
22日12時 WAT ~ 22日14時 WAT に徐々に
風向・風速北北西 5m/s
全天の4割程度の雲 雲底高度 700m
少しの積乱雲 雲底高度 910m
TAF FZAA 211100Z 2112/2218 30010KT 7000 SCT023 FEW030CB
PROB30 TEMPO 2114/2119 4000 TSRA BKN016 SCT028CB
BECMG 2120/2122 18004KT BKN016
BECMG 2211/2213 34010KT SCT023 FEW030CB